Time;durP1;ratioP1;P1;durP2;ratioP2;P2;SDS_P1;SDS_P2;PMS_P1;PMS_P2;Temp;Humidity;BMP_temperature;BMP_pressure;BME280_temperature;BME280_humidity;BME280_pressure;Samples;Min_cycle;Max_cycle;Signal;HPM_P1;HPM_P2
2022/10/28 00:02:44;;;;;;;3.35;1.90;;;22.40;89.00;;;;;;10545238;28;20091;-45
2022/10/28 00:07:45;;;;;;;2.95;1.90;;;22.20;89.00;;;;;;10537558;28;20109;-44
2022/10/28 00:12:49;;;;;;;3.35;2.05;;;22.20;89.10;;;;;;10534465;28;20044;-45
2022/10/28 00:17:51;;;;;;;3.67;1.83;;;22.20;89.10;;;;;;10519454;28;20050;-43
2022/10/28 00:22:53;;;;;;;3.53;1.90;;;22.20;89.20;;;;;;10539776;28;20138;-48
2022/10/28 00:27:56;;;;;;;2.28;1.83;;;22.20;89.20;;;;;;10525002;28;20076;-45
2022/10/28 00:32:58;;;;;;;2.92;1.83;;;22.20;89.40;;;;;;10528039;28;20477;-44
2022/10/28 00:38:00;;;;;;;2.97;1.77;;;22.20;89.40;;;;;;10531130;28;20135;-45
2022/10/28 00:43:03;;;;;;;3.75;2.00;;;22.10;89.40;;;;;;10513040;28;20052;-44
2022/10/28 00:48:06;;;;;;;5.68;2.42;;;22.20;89.60;;;;;;10533361;28;20068;-50
2022/10/28 00:53:11;;;;;;;4.28;1.60;;;22.10;89.60;;;;;;10537485;28;20127;-41
2022/10/28 00:58:15;;;;;;;2.67;1.73;;;22.10;89.60;;;;;;10541026;28;20100;-46
2022/10/28 01:03:18;;;;;;;6.20;2.05;;;22.10;89.60;;;;;;10525775;28;20079;-43
2022/10/28 01:08:20;;;;;;;3.22;1.85;;;22.10;89.60;;;;;;10531266;28;20043;-44
2022/10/28 01:13:32;;;;;;;5.38;2.33;;;22.10;89.80;;;;;;10530219;28;20077;-47
2022/10/28 01:18:42;;;;;;;;;;;22.10;89.80;;;;;;10526760;28;20128;-41
2022/10/28 01:23:56;;;;;;;3.50;1.60;;;22.00;90.00;;;;;;10541788;28;19963;-44
2022/10/28 01:29:31;;;;;;;2.38;1.73;;;22.10;90.00;;;;;;10532837;28;20125;-45
2022/10/28 01:34:43;;;;;;;4.28;1.95;;;22.00;90.00;;;;;;10538968;28;20067;-47
2022/10/28 01:39:49;;;;;;;3.42;1.80;;;22.00;90.10;;;;;;10530168;28;20139;-46
2022/10/28 01:44:57;;;;;;;5.43;2.13;;;22.00;90.00;;;;;;10536312;28;20163;-48
2022/10/28 01:50:05;;;;;;;4.32;1.90;;;22.00;90.10;;;;;;10528350;28;20044;-46
2022/10/28 01:55:14;;;;;;;8.57;2.45;;;22.00;90.10;;;;;;10527728;28;20067;-44
2022/10/28 02:00:16;;;;;;;3.40;1.70;;;22.00;90.10;;;;;;10533154;28;20044;-44
2022/10/28 02:05:43;;;;;;;4.53;2.35;;;21.90;90.20;;;;;;10535082;28;20071;-47
2022/10/28 02:10:58;;;;;;;4.90;2.63;;;22.00;90.20;;;;;;10531610;28;20110;-46
2022/10/28 02:16:07;;;;;;;3.58;2.17;;;21.90;90.10;;;;;;10533887;28;20477;-48
2022/10/28 02:21:19;;;;;;;3.42;1.88;;;22.00;90.20;;;;;;10538604;28;20141;-45
2022/10/28 02:26:25;;;;;;;;;;;21.90;90.20;;;;;;10525109;28;20056;-41
2022/10/28 02:31:31;;;;;;;5.15;2.17;;;21.90;90.20;;;;;;10543874;28;19977;-44
2022/10/28 02:36:40;;;;;;;3.05;1.90;;;22.00;90.20;;;;;;10519277;28;20036;-50
2022/10/28 02:41:49;;;;;;;4.55;2.33;;;21.90;90.20;;;;;;10531598;28;20493;-49
2022/10/28 02:46:52;;;;;;;4.63;2.20;;;21.90;90.30;;;;;;10534132;28;20044;-46
2022/10/28 02:52:00;;;;;;;3.55;2.22;;;21.90;90.30;;;;;;10517241;28;20531;-45
2022/10/28 02:57:06;;;;;;;2.90;2.08;;;21.80;90.30;;;;;;10533911;28;20089;-47
2022/10/28 03:02:09;;;;;;;3.65;1.77;;;21.80;90.30;;;;;;10523397;28;20047;-48
2022/10/28 03:07:12;;;;;;;4.35;1.80;;;21.80;90.30;;;;;;10518482;28;20132;-45
2022/10/28 03:12:14;;;;;;;4.55;1.90;;;21.90;90.40;;;;;;10528215;28;20075;-47
2022/10/28 03:17:16;;;;;;;4.05;1.98;;;21.80;90.30;;;;;;10522785;28;20044;-45
2022/10/28 03:22:19;;;;;;;2.08;1.85;;;21.80;90.30;;;;;;10525703;28;20097;-45
2022/10/28 03:27:21;;;;;;;3.92;2.28;;;21.80;90.30;;;;;;10510760;28;20132;-46
2022/10/28 03:32:23;;;;;;;3.08;1.70;;;21.80;90.30;;;;;;10513166;28;20453;-49
2022/10/28 03:37:26;;;;;;;4.80;1.92;;;21.80;90.40;;;;;;10530914;28;20120;-46
2022/10/28 03:42:28;;;;;;;3.85;2.47;;;21.80;90.30;;;;;;10531900;28;20539;-42
2022/10/28 03:47:30;;;;;;;3.92;2.08;;;21.70;90.30;;;;;;10530885;28;20113;-43
2022/10/28 03:52:33;;;;;;;5.68;2.05;;;21.70;90.30;;;;;;10539758;28;20079;-46
2022/10/28 03:57:35;;;;;;;2.65;1.92;;;21.70;90.30;;;;;;10531248;28;20108;-43
2022/10/28 04:02:37;;;;;;;4.78;2.08;;;21.70;90.40;;;;;;10537833;28;20083;-42
2022/10/28 04:07:40;;;;;;;3.85;2.10;;;21.70;90.30;;;;;;10528098;28;20123;-39
2022/10/28 04:12:42;;;;;;;4.38;2.08;;;21.70;90.40;;;;;;10543945;28;20121;-46
2022/10/28 04:17:44;;;;;;;4.57;1.98;;;21.70;90.40;;;;;;10553769;28;20552;-43
2022/10/28 04:22:47;;;;;;;5.10;2.28;;;21.70;90.40;;;;;;10538498;28;20083;-45
2022/10/28 04:27:49;;;;;;;4.18;1.90;;;21.70;90.60;;;;;;10539547;28;20610;-42
2022/10/28 04:32:51;;;;;;;4.43;1.95;;;21.70;90.30;;;;;;10538704;28;20048;-44
2022/10/28 04:37:54;;;;;;;4.63;2.25;;;21.70;90.40;;;;;;10540203;28;20055;-43
2022/10/28 04:42:56;;;;;;;4.63;2.33;;;21.70;90.30;;;;;;10542526;28;20090;-46
2022/10/28 04:47:58;;;;;;;3.35;1.83;;;21.70;90.30;;;;;;10535170;28;20051;-46
2022/10/28 04:53:01;;;;;;;4.05;2.10;;;21.60;90.30;;;;;;10527978;28;20090;-40
2022/10/28 04:58:03;;;;;;;3.47;2.20;;;21.60;90.30;;;;;;10532363;28;20106;-46
2022/10/28 05:03:05;;;;;;;5.00;1.92;;;21.70;90.40;;;;;;10525532;28;20106;-43
2022/10/28 05:08:08;;;;;;;3.55;1.73;;;21.60;90.50;;;;;;10526460;28;20044;-44
2022/10/28 05:13:10;;;;;;;3.35;1.73;;;21.60;90.40;;;;;;10533587;28;20532;-47
2022/10/28 05:18:12;;;;;;;4.50;2.70;;;21.60;90.40;;;;;;10536249;28;20101;-47
2022/10/28 05:23:15;;;;;;;3.65;2.30;;;21.60;90.30;;;;;;10528746;28;20091;-43
2022/10/28 05:28:17;;;;;;;3.65;1.98;;;21.60;90.40;;;;;;10524332;28;20130;-48
2022/10/28 05:33:19;;;;;;;3.80;2.13;;;21.50;90.60;;;;;;10519529;28;20044;-43
2022/10/28 05:38:22;;;;;;;4.00;1.67;;;21.50;90.60;;;;;;10521334;28;20131;-47
2022/10/28 05:43:24;;;;;;;6.07;1.73;;;21.50;90.50;;;;;;10518987;28;20093;-42
2022/10/28 05:48:26;;;;;;;3.90;1.85;;;21.40;90.40;;;;;;10534242;28;20244;-48
2022/10/28 05:53:29;;;;;;;3.17;1.90;;;21.50;90.50;;;;;;10520090;28;20048;-44
2022/10/28 05:58:31;;;;;;;3.78;1.80;;;21.50;90.40;;;;;;10532457;28;20070;-45
2022/10/28 06:03:33;;;;;;;3.67;1.58;;;21.50;90.40;;;;;;10532193;28;20097;-46
2022/10/28 06:08:36;;;;;;;3.28;1.58;;;21.50;90.40;;;;;;10526730;28;20092;-43
2022/10/28 06:13:38;;;;;;;3.30;1.80;;;21.50;90.40;;;;;;10501332;28;20460;-45
2022/10/28 06:18:40;;;;;;;3.25;2.08;;;21.50;90.40;;;;;;10500018;28;20066;-45
2022/10/28 06:23:43;;;;;;;3.55;2.05;;;21.50;90.40;;;;;;10527701;28;20062;-48
2022/10/28 06:28:48;;;;;;;2.70;1.60;;;21.50;90.40;;;;;;10522355;28;20052;-45
2022/10/28 06:33:49;;;;;;;5.30;1.88;;;21.40;90.50;;;;;;10531990;28;20048;-43
2022/10/28 06:38:54;;;;;;;3.17;1.63;;;21.50;90.40;;;;;;10528613;28;20421;-45
2022/10/28 06:43:56;;;;;;;3.90;2.35;;;21.50;90.40;;;;;;10531892;28;20101;-43
2022/10/28 06:48:58;;;;;;;6.18;1.85;;;21.50;90.30;;;;;;10533037;28;20105;-44
2022/10/28 06:54:01;;;;;;;4.20;1.95;;;21.40;90.30;;;;;;10521561;28;20477;-45
2022/10/28 06:59:03;;;;;;;3.97;1.83;;;21.50;90.40;;;;;;10520673;28;20514;-45
2022/10/28 07:04:05;;;;;;;2.90;1.83;;;21.50;90.40;;;;;;10529100;28;20520;-46
2022/10/28 07:09:09;;;;;;;3.40;1.63;;;21.40;90.30;;;;;;10518173;28;20126;-45
2022/10/28 07:14:11;;;;;;;4.80;1.92;;;21.40;90.30;;;;;;10534237;28;20125;-47
2022/10/28 07:19:13;;;;;;;4.13;1.60;;;21.50;90.30;;;;;;10527466;28;20048;-36
2022/10/28 07:24:16;;;;;;;4.75;1.90;;;21.50;90.20;;;;;;10529726;28;20105;-46
2022/10/28 07:29:18;;;;;;;3.90;1.83;;;21.50;90.30;;;;;;10520287;28;20044;-43
2022/10/28 07:34:20;;;;;;;;;;;21.50;90.30;;;;;;10518033;28;20036;-48
2022/10/28 07:39:24;;;;;;;5.32;1.63;;;21.50;90.40;;;;;;10522539;28;19969;-46
2022/10/28 07:44:26;;;;;;;4.10;2.15;;;21.50;90.30;;;;;;10513062;28;20064;-46
2022/10/28 07:49:27;;;;;;;10.10;2.08;;;21.50;90.30;;;;;;10515680;28;20052;-46
2022/10/28 07:54:31;;;;;;;9.82;2.53;;;21.20;90.40;;;;;;10517394;28;20060;-47
2022/10/28 07:59:33;;;;;;;3.38;2.08;;;21.50;90.30;;;;;;10531037;28;20044;-44
2022/10/28 08:04:35;;;;;;;7.35;2.20;;;21.50;90.30;;;;;;10526353;28;20055;-43
2022/10/28 08:09:38;;;;;;;6.05;1.95;;;21.40;90.40;;;;;;10513559;28;20052;-45
2022/10/28 08:14:40;;;;;;;7.00;2.35;;;21.50;90.30;;;;;;10519897;28;20097;-48
2022/10/28 08:19:42;;;;;;;11.15;2.95;;;21.50;90.30;;;;;;10515526;28;20076;-50
2022/10/28 08:24:45;;;;;;;8.00;2.38;;;21.50;90.30;;;;;;10519317;28;20063;-43
2022/10/28 08:29:47;;;;;;;6.85;2.40;;;21.50;90.30;;;;;;10509523;28;20045;-46
2022/10/28 08:34:49;;;;;;;10.70;2.55;;;21.40;90.50;;;;;;10527410;28;20053;-43
2022/10/28 08:39:52;;;;;;;20.27;4.30;;;21.30;90.60;;;;;;10530653;28;20128;-49
2022/10/28 08:45:14;;;;;;;4.95;2.10;;;21.20;91.10;;;;;;10522674;28;20092;-43
2022/10/28 08:50:17;;;;;;;;;;;21.30;90.80;;;;;;10517226;28;20056;-42
2022/10/28 08:55:25;;;;;;;7.85;2.45;;;21.50;90.10;;;;;;10536024;28;19928;-44
2022/10/28 09:00:31;;;;;;;8.88;2.00;;;21.40;90.50;;;;;;10525449;28;20480;-47
2022/10/28 09:05:33;;;;;;;6.40;2.17;;;21.40;90.50;;;;;;10519877;28;20036;-45
2022/10/28 09:11:12;;;;;;;6.43;1.85;;;21.10;91.20;;;;;;10521401;28;20504;-46
2022/10/28 09:16:23;;;;;;;7.78;2.65;;;21.10;90.80;;;;;;10512987;28;20496;-45
2022/10/28 09:21:35;;;;;;;10.75;2.97;;;20.60;92.20;;;;;;10524061;28;20056;-46
2022/10/28 09:26:49;;;;;;;7.38;2.15;;;20.90;91.70;;;;;;10531410;28;20056;-45
2022/10/28 09:31:55;;;;;;;3.80;1.88;;;20.90;92.10;;;;;;10530140;28;20403;-48
2022/10/28 09:37:04;;;;;;;6.07;2.40;;;20.90;91.80;;;;;;10535146;28;20177;-43
2022/10/28 09:42:13;;;;;;;7.22;2.10;;;21.40;91.20;;;;;;10535727;28;20093;-48
2022/10/28 09:47:19;;;;;;;8.75;4.22;;;21.40;90.40;;;;;;10528540;28;20565;-47
2022/10/28 09:52:24;;;;;;;6.35;1.90;;;21.20;91.80;;;;;;10534446;28;20500;-44
2022/10/28 09:57:31;;;;;;;13.82;3.08;;;21.60;90.30;;;;;;10526564;28;20105;-47
2022/10/28 10:02:34;;;;;;;16.90;4.00;;;21.30;91.10;;;;;;10513873;28;20051;-45
2022/10/28 10:07:40;;;;;;;13.25;2.80;;;20.90;92.40;;;;;;10525404;28;20690;-43
2022/10/28 10:12:44;;;;;;;16.55;4.53;;;20.70;93.10;;;;;;10532609;28;20052;-49
2022/10/28 10:17:47;;;;;;;6.57;2.58;;;20.90;92.30;;;;;;10522014;28;20638;-44
2022/10/28 10:22:49;;;;;;;7.93;2.30;;;21.00;92.00;;;;;;10514430;28;20098;-46
2022/10/28 10:27:53;;;;;;;;;;;21.30;91.00;;;;;;10543391;28;20052;-46
2022/10/28 10:32:56;;;;;;;10.13;3.83;;;20.60;93.10;;;;;;10530488;28;20555;-48
2022/10/28 10:38:01;;;;;;;9.98;3.22;;;20.80;92.60;;;;;;10525400;28;20133;-47
2022/10/28 10:43:22;;;;;;;14.77;3.35;;;20.90;92.30;;;;;;10518284;28;20060;-39
2022/10/28 10:48:23;;;;;;;15.30;3.70;;;20.50;93.30;;;;;;10514532;28;20044;-46
2022/10/28 10:53:27;;;;;;;6.28;2.97;;;20.80;92.80;;;;;;10524603;28;20094;-47
2022/10/28 10:58:33;;;;;;;16.17;3.70;;;20.80;92.70;;;;;;10533455;28;20043;-40
2022/10/28 11:03:39;;;;;;;7.40;2.90;;;20.70;93.10;;;;;;10516339;28;20048;-43
2022/10/28 11:08:43;;;;;;;16.60;3.95;;;20.70;93.20;;;;;;10511932;28;20134;-50
2022/10/28 11:13:48;;;;;;;19.85;5.57;;;20.80;93.40;;;;;;10521915;28;20412;-44
2022/10/28 11:18:52;;;;;;;17.17;5.80;;;20.30;95.00;;;;;;10524042;28;20076;-44
2022/10/28 11:24:05;;;;;;;21.65;4.10;;;20.20;95.10;;;;;;10517759;28;20190;-43
2022/10/28 11:29:11;;;;;;;12.65;4.00;;;20.20;95.60;;;;;;10528518;28;20040;-44
2022/10/28 11:34:43;;;;;;;12.38;4.50;;;20.40;94.80;;;;;;10522709;28;20461;-51
2022/10/28 11:39:57;;;;;;;10.95;3.47;;;20.40;94.90;;;;;;10501863;28;20117;-39
2022/10/28 11:45:06;;;;;;;11.23;3.17;;;20.60;94.50;;;;;;10520923;28;20098;-49
2022/10/28 11:50:19;;;;;;;17.15;3.30;;;20.60;94.20;;;;;;10526744;28;20075;-46
2022/10/28 11:55:32;;;;;;;9.82;3.28;;;20.80;93.80;;;;;;10523307;28;20122;-45
2022/10/28 12:00:49;;;;;;;21.38;3.88;;;20.70;93.70;;;;;;10529294;28;20048;-41
2022/10/28 12:05:57;;;;;;;14.85;3.97;;;20.60;94.50;;;;;;10535324;28;20499;-44
2022/10/28 12:11:15;;;;;;;12.95;3.25;;;20.60;94.30;;;;;;10536749;28;20144;-48
2022/10/28 12:16:24;;;;;;;15.45;3.88;;;20.70;94.10;;;;;;10538277;28;20079;-46
2022/10/28 12:21:32;;;;;;;16.35;4.18;;;20.70;94.20;;;;;;10537965;28;20147;-48
2022/10/28 12:26:43;;;;;;;10.63;3.17;;;20.60;94.00;;;;;;10527033;28;20082;-45
2022/10/28 12:31:51;;;;;;;21.58;4.38;;;20.50;94.50;;;;;;10533781;28;20434;-49
2022/10/28 12:37:02;;;;;;;18.25;4.10;;;20.50;94.50;;;;;;10515151;28;20130;-47
2022/10/28 12:42:11;;;;;;;9.70;3.53;;;20.30;94.90;;;;;;10535074;28;20548;-44
2022/10/28 12:47:20;;;;;;;13.52;4.30;;;20.50;95.20;;;;;;10547697;28;20138;-44
2022/10/28 12:52:32;;;;;;;16.50;3.85;;;20.70;94.50;;;;;;10525870;28;20102;-46
2022/10/28 12:57:35;;;;;;;18.05;4.18;;;20.60;94.80;;;;;;10530090;28;20052;-48
2022/10/28 13:02:44;;;;;;;18.35;3.78;;;20.70;94.60;;;;;;10520748;28;20484;-46
2022/10/28 13:08:22;;;;;;;15.38;4.07;;;20.60;95.10;;;;;;10528150;28;20079;-46
2022/10/28 13:13:48;;;;;;;13.35;3.53;;;20.70;94.80;;;;;;10525979;28;20045;-46
2022/10/28 13:19:13;;;;;;;16.35;3.63;;;20.80;95.10;;;;;;10516909;28;20048;-48
2022/10/28 13:24:20;;;;;;;19.90;3.65;;;20.30;96.40;;;;;;10530088;28;20084;-47
2022/10/28 13:29:25;;;;;;;19.02;4.10;;;20.30;97.10;;;;;;10530664;28;20449;-47
2022/10/28 13:34:34;;;;;;;14.30;3.95;;;20.10;97.70;;;;;;10521484;28;20072;-52
2022/10/28 13:39:43;;;;;;;9.15;2.88;;;20.40;97.20;;;;;;10526404;28;20500;-45
2022/10/28 13:44:50;;;;;;;20.35;5.45;;;20.30;97.30;;;;;;10523637;28;20496;-44
2022/10/28 13:50:22;;;;;;;17.85;4.65;;;19.90;98.50;;;;;;10529423;28;20052;-49
2022/10/28 13:55:26;;;;;;;20.30;4.13;;;20.20;97.80;;;;;;10527502;28;20671;-48
2022/10/28 14:00:36;;;;;;;21.52;4.60;;;20.00;98.10;;;;;;10524307;28;20044;-48
2022/10/28 14:05:54;;;;;;;25.10;5.07;;;19.80;98.90;;;;;;10524349;28;20060;-45
2022/10/28 14:11:01;;;;;;;23.67;4.28;;;19.60;99.60;;;;;;10528294;28;20077;-42
2022/10/28 14:16:22;;;;;;;17.80;4.28;;;19.90;98.80;;;;;;10529890;28;20079;-43
2022/10/28 14:21:38;;;;;;;19.30;3.65;;;19.60;99.80;;;;;;10508660;28;20051;-43
2022/10/28 14:27:25;;;;;;;12.77;3.83;;;19.60;99.90;;;;;;10515370;28;20044;-48
2022/10/28 14:32:44;;;;;;;24.48;4.13;;;19.40;99.90;;;;;;10509852;28;20048;-47
2022/10/28 14:38:30;;;;;;;26.95;5.20;;;19.30;99.90;;;;;;10524126;28;20051;-49
2022/10/28 14:43:47;;;;;;;18.30;3.28;;;19.30;99.90;;;;;;10520446;28;20079;-46
2022/10/28 14:48:51;;;;;;;27.40;5.28;;;19.40;99.90;;;;;;10523133;28;20054;-48
2022/10/28 14:53:58;;;;;;;21.75;3.53;;;19.40;99.90;;;;;;10528191;28;20503;-47
2022/10/28 14:59:13;;;;;;;18.75;4.22;;;19.40;99.90;;;;;;10524934;28;20047;-47
2022/10/28 15:04:21;;;;;;;21.70;3.92;;;19.10;99.90;;;;;;10522259;28;20155;-48
2022/10/28 15:09:27;;;;;;;22.17;4.45;;;19.40;99.90;;;;;;10529893;28;20105;-50
2022/10/28 15:14:32;;;;;;;27.40;3.42;;;19.10;99.90;;;;;;10526824;28;20044;-46
2022/10/28 15:19:35;;;;;;;21.27;3.55;;;19.60;99.90;;;;;;10526234;28;20217;-44
2022/10/28 15:24:39;;;;;;;19.23;3.45;;;19.20;99.90;;;;;;10525035;28;20432;-47
2022/10/28 15:29:42;;;;;;;21.58;3.45;;;18.80;99.90;;;;;;10531329;28;20061;-47
2022/10/28 15:34:44;;;;;;;17.88;3.53;;;18.80;99.90;;;;;;10518929;28;20139;-44
2022/10/28 15:39:51;;;;;;;15.35;3.60;;;18.80;99.90;;;;;;10513085;28;20495;-45
2022/10/28 15:44:55;;;;;;;15.60;2.60;;;18.90;99.90;;;;;;10519875;28;20052;-45
2022/10/28 15:50:17;;;;;;;10.35;2.17;;;19.20;97.70;;;;;;10526661;28;20051;-42
2022/10/28 15:55:32;;;;;;;13.13;2.05;;;18.80;99.30;;;;;;10526194;28;20167;-45
2022/10/28 16:00:34;;;;;;;15.23;2.00;;;19.00;99.90;;;;;;10523624;28;20048;-44
2022/10/28 16:05:55;;;;;;;11.45;2.35;;;18.90;98.30;;;;;;10523964;28;20088;-48
2022/10/28 16:11:01;;;;;;;11.52;2.00;;;19.30;97.90;;;;;;10519438;28;20725;-45
2022/10/28 16:16:07;;;;;;;14.48;2.55;;;18.70;99.40;;;;;;10517498;28;20457;-44
2022/10/28 16:21:17;;;;;;;13.77;2.25;;;18.70;99.60;;;;;;10529175;28;20084;-46
2022/10/28 16:26:20;;;;;;;14.15;2.40;;;19.30;97.70;;;;;;10518421;28;20052;-44
2022/10/28 16:31:26;;;;;;;11.40;2.17;;;18.50;99.30;;;;;;10518797;28;20117;-44
2022/10/28 16:36:29;;;;;;;12.70;1.90;;;18.50;99.90;;;;;;10525345;28;20052;-51
2022/10/28 16:41:32;;;;;;;9.43;2.35;;;18.70;99.00;;;;;;10514767;28;20439;-43
2022/10/28 16:46:37;;;;;;;10.68;1.70;;;18.40;99.30;;;;;;10525288;28;20052;-43
2022/10/28 16:51:39;;;;;;;14.15;2.03;;;19.10;99.20;;;;;;10523174;28;20044;-46
2022/10/28 16:56:42;;;;;;;10.27;1.57;;;18.70;99.30;;;;;;10531973;28;20788;-44
2022/10/28 17:01:44;;;;;;;11.40;2.17;;;18.70;99.90;;;;;;10527938;28;20619;-47
2022/10/28 17:06:46;;;;;;;15.77;3.13;;;18.70;99.70;;;;;;10538712;28;20366;-37
2022/10/28 17:11:49;;;;;;;15.25;3.03;;;18.00;99.90;;;;;;10529886;28;20105;-45
2022/10/28 17:16:51;;;;;;;19.65;2.65;;;18.20;99.90;;;;;;10542460;28;20060;-49
2022/10/28 17:21:53;;;;;;;14.40;2.47;;;18.20;99.90;;;;;;10532203;28;20060;-42
2022/10/28 17:26:57;;;;;;;24.42;2.72;;;18.20;99.90;;;;;;10527576;28;20048;-49
2022/10/28 17:31:58;;;;;;;19.58;2.95;;;18.30;99.90;;;;;;10525626;28;20135;-44
2022/10/28 17:37:00;;;;;;;23.35;2.72;;;17.60;99.90;;;;;;10532141;28;20130;-44
2022/10/28 17:42:04;;;;;;;21.10;2.90;;;17.30;99.90;;;;;;10525219;28;20066;-46
2022/10/28 17:47:06;;;;;;;24.25;2.80;;;17.30;99.90;;;;;;10538244;28;20536;-44
2022/10/28 17:52:07;;;;;;;21.47;2.77;;;17.50;99.90;;;;;;10529090;28;20048;-47
2022/10/28 17:57:11;;;;;;;19.30;2.87;;;17.30;99.90;;;;;;10536415;28;20475;-42
2022/10/28 18:02:13;;;;;;;21.13;2.97;;;17.30;99.90;;;;;;10532525;28;20048;-47
2022/10/28 18:07:15;;;;;;;;;;;17.90;99.90;;;;;;10516429;28;20138;-44
2022/10/28 18:12:18;;;;;;;18.38;2.70;;;18.70;99.90;;;;;;10526873;28;19950;-44
2022/10/28 18:17:20;;;;;;;15.25;2.80;;;18.10;99.90;;;;;;10531384;28;20078;-47
2022/10/28 18:22:22;;;;;;;11.73;1.98;;;18.40;99.90;;;;;;10529947;28;20484;-47
2022/10/28 18:27:25;;;;;;;14.73;3.25;;;18.70;99.90;;;;;;10526603;28;20068;-47
2022/10/28 18:32:27;;;;;;;10.32;1.80;;;18.70;99.90;;;;;;10546963;28;20469;-45
2022/10/28 18:37:28;;;;;;;27.45;3.75;;;19.20;99.90;;;;;;10520478;28;20055;-46
2022/10/28 18:42:32;;;;;;;19.27;2.60;;;17.50;99.90;;;;;;10528519;28;20455;-47
2022/10/28 18:47:34;;;;;;;20.95;2.05;;;18.00;99.90;;;;;;10525278;28;20056;-51
2022/10/28 18:52:36;;;;;;;22.73;2.85;;;18.30;99.90;;;;;;10518538;28;20063;-50
2022/10/28 18:57:39;;;;;;;10.63;1.88;;;19.40;99.00;;;;;;10530242;28;20525;-42
2022/10/28 19:02:41;;;;;;;9.90;2.22;;;18.00;99.90;;;;;;10529607;28;20051;-49
2022/10/28 19:07:43;;;;;;;21.48;2.85;;;19.20;99.90;;;;;;10523607;28;20048;-48
2022/10/28 19:12:47;;;;;;;14.02;2.22;;;18.60;99.90;;;;;;10525126;28;20044;-52
2022/10/28 19:17:52;;;;;;;8.63;1.45;;;19.60;98.40;;;;;;10520218;28;20396;-49
2022/10/28 19:22:54;;;;;;;3.60;1.67;;;20.80;95.60;;;;;;10515575;28;20080;-46
2022/10/28 19:27:57;;;;;;;14.40;1.98;;;20.70;95.80;;;;;;10522050;28;20071;-49
2022/10/28 19:32:59;;;;;;;13.32;2.63;;;19.80;98.60;;;;;;10531152;28;20126;-45
2022/10/28 19:38:01;;;;;;;20.42;2.75;;;19.50;98.50;;;;;;10522361;28;20067;-51
2022/10/28 19:43:04;;;;;;;12.82;2.80;;;19.30;99.10;;;;;;10524532;28;20538;-48
2022/10/28 19:48:06;;;;;;;7.13;1.50;;;20.20;96.40;;;;;;10528993;28;20070;-48
2022/10/28 19:53:08;;;;;;;21.20;4.18;;;20.60;95.60;;;;;;10539202;28;20090;-44
2022/10/28 19:58:11;;;;;;;10.82;1.63;;;19.90;96.10;;;;;;10536228;28;20132;-50
2022/10/28 20:03:13;;;;;;;17.73;2.90;;;20.00;97.70;;;;;;10520578;28;20139;-46
2022/10/28 20:08:16;;;;;;;21.15;2.78;;;19.80;97.20;;;;;;10521915;28;20052;-47
2022/10/28 20:13:19;;;;;;;7.05;1.48;;;19.90;96.10;;;;;;10526989;28;20048;-47
2022/10/28 20:18:21;;;;;;;9.95;2.05;;;20.10;96.10;;;;;;10542719;28;20460;-45
2022/10/28 20:23:23;;;;;;;10.60;2.15;;;19.20;99.70;;;;;;10533292;28;20420;-46
2022/10/28 20:28:26;;;;;;;18.83;3.08;;;20.20;96.80;;;;;;10534301;28;20127;-46
2022/10/28 20:33:29;;;;;;;11.23;1.92;;;19.20;99.00;;;;;;10525928;28;20044;-43
2022/10/28 20:38:30;;;;;;;22.90;2.45;;;19.50;98.50;;;;;;10530571;28;20154;-41
2022/10/28 20:43:34;;;;;;;18.90;2.90;;;18.80;99.90;;;;;;10528718;28;20060;-47
2022/10/28 20:48:35;;;;;;;17.10;2.28;;;19.00;99.50;;;;;;10523802;28;20051;-47
2022/10/28 20:53:38;;;;;;;8.05;2.08;;;19.20;98.90;;;;;;10528157;28;20416;-49
2022/10/28 20:58:41;;;;;;;17.55;2.30;;;18.90;99.90;;;;;;10533981;28;20047;-47
2022/10/28 21:03:44;;;;;;;10.57;1.67;;;18.80;99.90;;;;;;10532660;28;20135;-47
2022/10/28 21:08:45;;;;;;;18.17;2.72;;;19.70;98.30;;;;;;10536642;28;20048;-48
2022/10/28 21:13:51;;;;;;;15.38;2.17;;;19.40;97.20;;;;;;10536978;28;20055;-44
2022/10/28 21:18:54;;;;;;;14.18;1.95;;;19.20;99.30;;;;;;10536229;28;20048;-47
2022/10/28 21:23:56;;;;;;;10.48;2.13;;;19.20;99.60;;;;;;10529271;28;20157;-49
2022/10/28 21:28:59;;;;;;;9.05;2.05;;;19.90;97.00;;;;;;10545622;28;20067;-49
2022/10/28 21:34:01;;;;;;;11.75;1.70;;;19.70;97.90;;;;;;10528427;28;20080;-48
2022/10/28 21:39:03;;;;;;;8.25;1.50;;;20.40;95.40;;;;;;10531239;28;20466;-45
2022/10/28 21:44:06;;;;;;;6.07;1.48;;;20.80;93.90;;;;;;10520021;28;20127;-50
2022/10/28 21:49:08;;;;;;;5.43;1.45;;;21.10;93.00;;;;;;10516579;28;20471;-42
2022/10/28 21:54:10;;;;;;;10.35;1.75;;;21.40;92.10;;;;;;10528324;28;20076;-50
2022/10/28 21:59:13;;;;;;;6.82;1.40;;;21.40;91.70;;;;;;10534298;28;20093;-44
2022/10/28 22:04:15;;;;;;;6.20;1.38;;;21.40;91.50;;;;;;10529875;28;20048;-50
2022/10/28 22:09:17;;;;;;;9.23;2.13;;;21.50;91.40;;;;;;10525809;28;20123;-46
2022/10/28 22:14:20;;;;;;;7.75;1.42;;;21.40;91.40;;;;;;10522770;28;20048;-41
2022/10/28 22:19:22;;;;;;;8.30;1.52;;;21.50;91.20;;;;;;10524926;28;20051;-47
2022/10/28 22:24:24;;;;;;;9.02;1.40;;;21.50;91.10;;;;;;10526373;28;20146;-46
2022/10/28 22:29:28;;;;;;;10.27;1.75;;;21.50;91.00;;;;;;10525278;28;20064;-42
2022/10/28 22:34:29;;;;;;;13.20;2.03;;;21.50;90.90;;;;;;10523183;28;20048;-43
2022/10/28 22:39:31;;;;;;;7.78;1.80;;;21.50;91.00;;;;;;10523438;28;20138;-48
2022/10/28 22:44:34;;;;;;;5.53;1.38;;;21.50;90.90;;;;;;10528605;28;20738;-49
2022/10/28 22:49:36;;;;;;;8.93;1.98;;;21.50;91.00;;;;;;10522000;28;20595;-47
2022/10/28 22:54:38;;;;;;;6.60;1.88;;;21.50;90.90;;;;;;10529271;28;20075;-46
2022/10/28 22:59:41;;;;;;;7.60;1.88;;;21.50;90.90;;;;;;10523588;28;20075;-50
2022/10/28 23:04:43;;;;;;;6.93;1.70;;;21.50;90.90;;;;;;10529594;28;20093;-45
2022/10/28 23:09:45;;;;;;;10.23;1.63;;;21.40;90.80;;;;;;10525878;28;20052;-40
2022/10/28 23:14:48;;;;;;;8.68;1.92;;;21.50;90.80;;;;;;10521979;28;20501;-47
2022/10/28 23:19:50;;;;;;;7.15;1.42;;;21.50;90.90;;;;;;10531195;28;20044;-48
2022/10/28 23:24:52;;;;;;;5.95;1.50;;;21.50;90.80;;;;;;10511628;28;20101;-47
2022/10/28 23:29:55;;;;;;;5.72;1.13;;;21.50;90.80;;;;;;10521700;28;20485;-47
2022/10/28 23:34:57;;;;;;;11.25;2.08;;;21.50;90.80;;;;;;10532283;28;20071;-48
2022/10/28 23:39:59;;;;;;;6.63;1.10;;;21.50;90.80;;;;;;10528003;28;20389;-47
2022/10/28 23:45:02;;;;;;;7.47;2.50;;;21.50;90.80;;;;;;10521517;28;20503;-48
2022/10/28 23:50:05;;;;;;;7.78;1.38;;;21.50;90.80;;;;;;10521701;28;20094;-47
2022/10/28 23:55:08;;;;;;;6.47;1.50;;;21.50;90.80;;;;;;10536625;28;20524;-45
